Anvik, Alaska
Current Conditions -  °F | °C
As of 11:36 PM on Thursday 18 Dec 2014 (Local Time) from PANV Reporting Station
Scattered Clouds Scattered Clouds  
Wind Chill: -17°   Ceiling: Unl
Heat Index: -11°   Visibility: 10mi
Dew Point: -13°   Wind: 8mph
Humidity: 85%   Direction: 30°NNE
Pressure: 29.34"   Gusts: NA
Location:  62.66°N, 160.21°W
Report Text: PANV 190836Z AUTO 03007KT 10SM SCT008 M11/M13 A2934 RMK AO1
Loading
Personal Weather Stations






























Interactive Weather Map New forecast layout! Learn more

10-Day Weather Forecast

Advertisements
Track Severe Weather on mobile